sensor_id;sensor_type;location;lat;lon;timestamp;P1;P4;P2;P0;N10;N4;N25;N1;N05;TS
78736;SPS30;68349;52.124;5.404;2023-03-04T00:02:18;7.12;6.26;4.50;2.25;18.22;18.12;17.65;15.40;9.77;0.99
78736;SPS30;68349;52.124;5.404;2023-03-04T00:04:44;7.28;6.40;4.61;2.31;18.67;18.56;18.09;15.79;10.03;0.99
78736;SPS30;68349;52.124;5.404;2023-03-04T00:07:11;7.84;6.89;4.94;2.45;19.85;19.74;19.22;16.73;10.54;1.00
78736;SPS30;68349;52.124;5.404;2023-03-04T00:09:42;7.88;6.94;5.01;2.55;20.59;20.47;19.96;17.50;11.25;0.99
78736;SPS30;68349;52.124;5.404;2023-03-04T00:12:10;7.63;6.71;4.82;2.39;19.36;19.24;18.74;16.32;10.29;1.01
78736;SPS30;68349;52.124;5.404;2023-03-04T00:14:36;7.47;6.58;4.76;2.43;19.62;19.51;19.03;16.70;10.77;0.99
78736;SPS30;68349;52.124;5.404;2023-03-04T00:17:03;6.96;6.15;4.49;2.36;19.05;18.95;18.51;16.38;10.83;0.96
78736;SPS30;68349;52.124;5.404;2023-03-04T00:19:30;7.69;6.77;4.89;2.48;20.08;19.97;19.47;17.07;10.97;0.99
78736;SPS30;68349;52.124;5.404;2023-03-04T00:21:57;8.35;7.34;5.27;2.63;21.26;21.14;20.59;17.94;11.34;0.99
78736;SPS30;68349;52.124;5.404;2023-03-04T00:24:23;7.74;6.82;4.96;2.55;20.64;20.53;20.04;17.64;11.49;0.95
78736;SPS30;68349;52.124;5.404;2023-03-04T00:26:50;6.96;6.16;4.51;2.39;19.31;19.21;18.77;16.66;11.10;0.93
78736;SPS30;68349;52.124;5.404;2023-03-04T00:29:17;6.84;6.06;4.46;2.40;19.35;19.25;18.82;16.77;11.29;0.92
78736;SPS30;68349;52.124;5.404;2023-03-04T00:31:43;7.03;6.22;4.56;2.41;19.49;19.39;18.95;16.81;11.20;0.94
78736;SPS30;68349;52.124;5.404;2023-03-04T00:34:10;6.31;5.58;4.09;2.17;17.53;17.44;17.04;15.13;10.09;0.93
78736;SPS30;68349;52.124;5.404;2023-03-04T00:36:37;6.80;6.03;4.46;2.42;19.50;19.41;18.99;16.96;11.51;0.91
78736;SPS30;68349;52.124;5.404;2023-03-04T00:39:03;7.31;6.47;4.77;2.57;20.74;20.63;20.18;17.99;12.14;0.92
78736;SPS30;68349;52.124;5.404;2023-03-04T00:41:30;6.94;6.14;4.52;2.42;19.55;19.45;19.02;16.93;11.38;0.93
78736;SPS30;68349;52.124;5.404;2023-03-04T00:43:57;7.05;6.25;4.60;2.47;19.98;19.88;19.44;17.33;11.68;0.92
78736;SPS30;68349;52.124;5.404;2023-03-04T00:46:23;6.84;6.08;4.51;2.48;19.98;19.89;19.47;17.45;11.95;0.90
78736;SPS30;68349;52.124;5.404;2023-03-04T00:48:50;7.08;6.27;4.63;2.51;20.27;20.17;19.74;17.63;11.95;0.92
78736;SPS30;68349;52.124;5.404;2023-03-04T00:51:16;6.37;5.65;4.18;2.27;18.32;18.23;17.84;15.95;10.84;0.92
78736;SPS30;68349;52.124;5.404;2023-03-04T00:53:43;7.19;6.36;4.68;2.50;20.18;20.08;19.63;17.47;11.72;0.93
78736;SPS30;68349;52.124;5.404;2023-03-04T00:56:10;6.79;6.01;4.42;2.36;19.04;18.95;18.52;16.48;11.04;0.93
78736;SPS30;68349;52.124;5.404;2023-03-04T00:58:36;7.54;6.67;4.89;2.59;20.88;20.77;20.30;18.01;11.99;0.94
78736;SPS30;68349;52.124;5.404;2023-03-04T01:01:05;7.02;6.22;4.60;2.49;20.09;20.00;19.56;17.47;11.84;0.91
78736;SPS30;68349;52.124;5.404;2023-03-04T01:03:32;6.85;6.07;4.49;2.43;19.64;19.54;19.12;17.08;11.59;0.91
78736;SPS30;68349;52.124;5.404;2023-03-04T01:05:59;6.74;5.97;4.42;2.40;19.37;19.27;18.86;16.85;11.45;0.91
78736;SPS30;68349;52.124;5.404;2023-03-04T01:08:26;6.08;5.41;4.04;2.26;18.19;18.11;17.75;15.98;11.08;0.89
78736;SPS30;68349;52.124;5.404;2023-03-04T01:10:53;6.23;5.54;4.15;2.33;18.77;18.68;18.31;16.51;11.48;0.90
78736;SPS30;68349;52.124;5.404;2023-03-04T01:13:19;6.49;5.77;4.32;2.42;19.54;19.45;19.06;17.18;11.95;0.90
78736;SPS30;68349;52.124;5.404;2023-03-04T01:15:46;6.17;5.50;4.14;2.35;18.97;18.88;18.52;16.75;11.76;0.86
78736;SPS30;68349;52.124;5.404;2023-03-04T01:18:13;5.49;4.91;3.73;2.18;17.55;17.48;17.16;15.63;11.16;0.85
78736;SPS30;68349;52.124;5.404;2023-03-04T01:20:39;6.32;5.62;4.19;2.33;18.80;18.72;18.34;16.49;11.40;0.89
78736;SPS30;68349;52.124;5.404;2023-03-04T01:23:06;6.27;5.57;4.15;2.31;18.60;18.51;18.13;16.30;11.25;0.87
78736;SPS30;68349;52.124;5.404;2023-03-04T01:25:33;6.16;5.47;4.08;2.27;18.28;18.20;17.82;16.03;11.07;0.87
78736;SPS30;68349;52.124;5.404;2023-03-04T01:27:59;6.42;5.71;4.26;2.37;19.12;19.03;18.65;16.77;11.60;0.87
78736;SPS30;68349;52.124;5.404;2023-03-04T01:30:26;6.29;5.58;4.13;2.24;18.11;18.02;17.64;15.77;10.72;0.89
78736;SPS30;68349;52.124;5.404;2023-03-04T01:32:52;6.09;5.41;4.02;2.22;17.95;17.86;17.49;15.71;10.81;0.89
78736;SPS30;68349;52.124;5.404;2023-03-04T01:35:19;6.06;5.38;4.00;2.21;17.81;17.73;17.36;15.58;10.71;0.89
78736;SPS30;68349;52.124;5.404;2023-03-04T01:37:46;6.70;5.94;4.39;2.39;19.26;19.16;18.75;16.76;11.39;0.90
78736;SPS30;68349;52.124;5.404;2023-03-04T01:40:13;5.89;5.26;3.96;2.26;18.25;18.17;17.82;16.14;11.37;0.85
78736;SPS30;68349;52.124;5.404;2023-03-04T01:42:40;6.19;5.52;4.14;2.34;18.89;18.80;18.44;16.65;11.65;0.87
78736;SPS30;68349;52.124;5.404;2023-03-04T01:45:15;5.74;5.11;3.83;2.15;17.32;17.24;16.90;15.24;10.60;0.88
78736;SPS30;68349;52.124;5.404;2023-03-04T01:47:45;5.99;5.35;4.05;2.35;18.91;18.83;18.48;16.80;11.94;0.86
78736;SPS30;68349;52.124;5.404;2023-03-04T01:50:32;6.41;5.70;4.26;2.38;19.19;19.10;18.72;16.86;11.69;0.88
78736;SPS30;68349;52.124;5.404;2023-03-04T01:53:02;5.92;5.30;4.03;2.36;19.02;18.95;18.61;16.96;12.15;0.84
78736;SPS30;68349;52.124;5.404;2023-03-04T01:55:29;6.31;5.65;4.28;2.49;20.07;19.98;19.62;17.85;12.72;0.85
78736;SPS30;68349;52.124;5.404;2023-03-04T01:57:56;6.12;5.47;4.15;2.41;19.39;19.31;18.96;17.24;12.27;0.84
78736;SPS30;68349;52.124;5.404;2023-03-04T02:00:28;5.75;5.13;3.87;2.23;17.94;17.86;17.53;15.90;11.24;0.85
78736;SPS30;68349;52.124;5.404;2023-03-04T02:03:01;6.27;5.60;4.22;2.42;19.48;19.39;19.03;17.24;12.16;0.84
78736;SPS30;68349;52.124;5.404;2023-03-04T02:05:33;6.28;5.59;4.19;2.36;19.01;18.92;18.55;16.73;11.67;0.86
78736;SPS30;68349;52.124;5.404;2023-03-04T02:08:03;6.41;5.70;4.25;2.35;18.98;18.89;18.50;16.63;11.46;0.87
78736;SPS30;68349;52.124;5.404;2023-03-04T02:10:31;6.57;5.84;4.34;2.40;19.33;19.24;18.84;16.91;11.62;0.87
78736;SPS30;68349;52.124;5.404;2023-03-04T02:12:59;5.74;5.12;3.86;2.20;17.77;17.69;17.36;15.72;11.08;0.84
78736;SPS30;68349;52.124;5.404;2023-03-04T02:15:26;6.07;5.43;4.13;2.41;19.44;19.36;19.01;17.32;12.38;0.82
78736;SPS30;68349;52.124;5.404;2023-03-04T02:17:54;5.18;4.66;3.58;2.16;17.41;17.34;17.05;15.66;11.41;0.79
78736;SPS30;68349;52.124;5.404;2023-03-04T02:20:29;5.71;5.12;3.92;2.32;18.72;18.64;18.32;16.75;12.09;0.82
78736;SPS30;68349;52.124;5.404;2023-03-04T02:23:25;5.60;5.04;3.89;2.36;19.04;18.97;18.66;17.16;12.56;0.81
78736;SPS30;68349;52.124;5.404;2023-03-04T02:26:15;6.01;5.35;4.01;2.25;18.15;18.07;17.71;15.97;11.12;0.90
78736;SPS30;68349;52.124;5.404;2023-03-04T02:28:44;5.57;4.96;3.72;2.09;16.87;16.79;16.46;14.85;10.35;0.88
78736;SPS30;68349;52.124;5.404;2023-03-04T02:31:19;6.07;5.40;4.03;2.25;18.12;18.04;17.68;15.91;11.01;0.88
78736;SPS30;68349;52.124;5.404;2023-03-04T02:34:02;5.86;5.21;3.88;2.16;17.40;17.32;16.97;15.26;10.54;0.87
78736;SPS30;68349;52.124;5.404;2023-03-04T02:36:32;5.94;5.29;3.95;2.21;17.85;17.77;17.41;15.69;10.90;0.86
78736;SPS30;68349;52.124;5.404;2023-03-04T02:39:05;6.11;5.44;4.06;2.27;18.28;18.20;17.83;16.05;11.12;0.87
78736;SPS30;68349;52.124;5.404;2023-03-04T02:41:36;6.11;5.43;4.04;2.23;17.98;17.90;17.53;15.73;10.82;0.89
78736;SPS30;68349;52.124;5.404;2023-03-04T02:44:08;6.55;5.79;4.23;2.23;18.01;17.92;17.51;15.51;10.29;0.94
78736;SPS30;68349;52.124;5.404;2023-03-04T02:46:43;6.21;5.51;4.08;2.23;17.98;17.89;17.51;15.67;10.68;0.91
78736;SPS30;68349;52.124;5.404;2023-03-04T02:49:10;5.70;5.07;3.79;2.12;17.07;16.99;16.65;14.99;10.40;0.88
78736;SPS30;68349;52.124;5.404;2023-03-04T02:51:37;5.81;5.17;3.84;2.12;17.07;16.99;16.64;14.93;10.25;0.90
78736;SPS30;68349;52.124;5.404;2023-03-04T02:54:11;5.71;5.08;3.78;2.10;16.94;16.87;16.52;14.85;10.26;0.90
78736;SPS30;68349;52.124;5.404;2023-03-04T02:56:49;6.18;5.47;4.01;2.13;17.23;17.14;16.76;14.89;9.95;0.94
78736;SPS30;68349;52.124;5.404;2023-03-04T02:59:19;5.41;4.80;3.55;1.94;15.62;15.54;15.21;13.61;9.27;0.91
78736;SPS30;68349;52.124;5.404;2023-03-04T03:01:47;4.99;4.43;3.29;1.81;14.60;14.53;14.23;12.76;8.75;0.90
78736;SPS30;68349;52.124;5.404;2023-03-04T03:04:15;5.38;4.78;3.55;1.95;15.77;15.70;15.37;13.79;9.46;0.89
78736;SPS30;68349;52.124;5.404;2023-03-04T03:06:43;5.53;4.90;3.62;1.96;15.83;15.76;15.42;13.77;9.34;0.91
78736;SPS30;68349;52.124;5.404;2023-03-04T03:09:10;5.43;4.81;3.54;1.89;15.28;15.20;14.86;13.23;8.88;0.94
78736;SPS30;68349;52.124;5.404;2023-03-04T03:11:36;5.99;5.29;3.84;1.98;16.03;15.95;15.56;13.71;8.95;0.99
78736;SPS30;68349;52.124;5.404;2023-03-04T03:14:03;6.18;5.44;3.93;1.99;16.06;15.97;15.57;13.64;8.74;1.01
78736;SPS30;68349;52.124;5.404;2023-03-04T03:16:30;5.89;5.19;3.76;1.92;15.50;15.41;15.03;13.20;8.52;1.00
78736;SPS30;68349;52.124;5.404;2023-03-04T03:18:57;5.90;5.20;3.77;1.93;15.58;15.49;15.11;13.27;8.59;0.99
78736;SPS30;68349;52.124;5.404;2023-03-04T03:21:23;5.40;4.77;3.48;1.81;14.63;14.55;14.21;12.55;8.25;0.97
78736;SPS30;68349;52.124;5.404;2023-03-04T03:23:50;5.22;4.61;3.36;1.74;14.10;14.02;13.69;12.09;7.93;0.97
78736;SPS30;68349;52.124;5.404;2023-03-04T03:26:17;5.45;4.81;3.50;1.81;14.60;14.52;14.17;12.49;8.16;0.97
78736;SPS30;68349;52.124;5.404;2023-03-04T03:28:45;4.82;4.27;3.16;1.71;13.84;13.77;13.48;12.04;8.18;0.92
78736;SPS30;68349;52.124;5.404;2023-03-04T03:31:11;5.31;4.71;3.49;1.90;15.35;15.28;14.95;13.38;9.12;0.92
78736;SPS30;68349;52.124;5.404;2023-03-04T03:33:38;5.32;4.72;3.47;1.87;15.07;14.99;14.66;13.06;8.80;0.93
78736;SPS30;68349;52.124;5.404;2023-03-04T03:36:05;5.41;4.79;3.53;1.89;15.27;15.19;14.85;13.23;8.90;0.93
78736;SPS30;68349;52.124;5.404;2023-03-04T03:38:33;5.11;4.52;3.33;1.78;14.36;14.28;13.97;12.43;8.34;0.94
78736;SPS30;68349;52.124;5.404;2023-03-04T03:41:00;5.16;4.57;3.35;1.78;14.35;14.28;13.96;12.39;8.27;0.94
78736;SPS30;68349;52.124;5.404;2023-03-04T03:43:27;4.97;4.40;3.23;1.73;13.95;13.88;13.57;12.08;8.11;0.93
78736;SPS30;68349;52.124;5.404;2023-03-04T03:45:53;4.94;4.37;3.21;1.71;13.83;13.76;13.45;11.96;8.01;0.94
78736;SPS30;68349;52.124;5.404;2023-03-04T03:48:20;4.51;4.01;2.99;1.65;13.32;13.26;12.99;11.67;8.03;0.91
78736;SPS30;68349;52.124;5.404;2023-03-04T03:50:46;4.18;3.72;2.79;1.57;12.67;12.61;12.36;11.16;7.78;0.88
78736;SPS30;68349;52.124;5.404;2023-03-04T03:53:13;5.08;4.51;3.35;1.83;14.79;14.72;14.41;12.91;8.82;0.90
78736;SPS30;68349;52.124;5.404;2023-03-04T03:55:40;4.67;4.15;3.09;1.71;13.81;13.75;13.47;12.10;8.34;0.88
78736;SPS30;68349;52.124;5.404;2023-03-04T03:58:06;4.82;4.31;3.26;1.88;15.14;15.08;14.80;13.44;9.52;0.86
78736;SPS30;68349;52.124;5.404;2023-03-04T04:00:33;4.01;3.59;2.71;1.56;12.58;12.53;12.29;11.16;7.90;0.87
78736;SPS30;68349;52.124;5.404;2023-03-04T04:03:00;4.52;4.04;3.04;1.74;14.06;14.00;13.73;12.45;8.78;0.86
78736;SPS30;68349;52.124;5.404;2023-03-04T04:05:27;4.57;4.09;3.11;1.82;14.69;14.63;14.37;13.11;9.39;0.83
78736;SPS30;68349;52.124;5.404;2023-03-04T04:07:54;4.66;4.16;3.13;1.78;14.36;14.30;14.03;12.70;8.92;0.86
78736;SPS30;68349;52.124;5.404;2023-03-04T04:10:21;5.17;4.59;3.42;1.89;15.25;15.18;14.87;13.36;9.20;0.89
78736;SPS30;68349;52.124;5.404;2023-03-04T04:12:47;5.19;4.60;3.39;1.83;14.79;14.72;14.40;12.85;8.69;0.91
78736;SPS30;68349;52.124;5.404;2023-03-04T04:15:14;4.67;4.15;3.09;1.70;13.72;13.66;13.38;12.00;8.24;0.90
78736;SPS30;68349;52.124;5.404;2023-03-04T04:17:41;5.11;4.55;3.39;1.89;15.28;15.21;14.90;13.42;9.30;0.89
78736;SPS30;68349;52.124;5.404;2023-03-04T04:20:07;4.86;4.32;3.23;1.80;14.51;14.45;14.15;12.74;8.82;0.88
78736;SPS30;68349;52.124;5.404;2023-03-04T04:22:35;4.87;4.34;3.26;1.84;14.86;14.79;14.50;13.10;9.17;0.87
78736;SPS30;68349;52.124;5.404;2023-03-04T04:25:01;4.60;4.10;3.07;1.73;13.96;13.90;13.63;12.30;8.58;0.87
78736;SPS30;68349;52.124;5.404;2023-03-04T04:27:28;4.14;3.71;2.81;1.63;13.15;13.09;12.85;11.69;8.32;0.85
78736;SPS30;68349;52.124;5.404;2023-03-04T04:29:54;3.97;3.55;2.70;1.57;12.66;12.61;12.38;11.27;8.04;0.85
78736;SPS30;68349;52.124;5.404;2023-03-04T04:32:21;4.47;3.98;2.97;1.66;13.42;13.36;13.09;11.79;8.19;0.88
78736;SPS30;68349;52.124;5.404;2023-03-04T04:34:48;4.80;4.26;3.15;1.71;13.83;13.76;13.47;12.04;8.19;0.91
78736;SPS30;68349;52.124;5.404;2023-03-04T04:37:14;4.78;4.25;3.16;1.75;14.12;14.06;13.77;12.37;8.52;0.91
78736;SPS30;68349;52.124;5.404;2023-03-04T04:39:41;4.59;4.08;3.05;1.71;13.78;13.72;13.44;12.11;8.41;0.89
78736;SPS30;68349;52.124;5.404;2023-03-04T04:42:08;4.76;4.23;3.13;1.71;13.80;13.73;13.44;12.03;8.20;0.91
78736;SPS30;68349;52.124;5.404;2023-03-04T04:44:36;4.64;4.11;3.02;1.62;13.07;13.01;12.72;11.33;7.62;0.93
78736;SPS30;68349;52.124;5.404;2023-03-04T04:47:04;5.16;4.59;3.41;1.89;15.22;15.15;14.84;13.33;9.17;0.90
78736;SPS30;68349;52.124;5.404;2023-03-04T04:49:32;4.65;4.16;3.17;1.86;14.95;14.89;14.62;13.33;9.54;0.86
78736;SPS30;68349;52.124;5.404;2023-03-04T04:51:59;4.40;3.95;3.05;1.85;14.90;14.85;14.61;13.43;9.82;0.84
78736;SPS30;68349;52.124;5.404;2023-03-04T04:54:25;4.07;3.67;2.85;1.75;14.12;14.07;13.85;12.78;9.43;0.81
78736;SPS30;68349;52.124;5.404;2023-03-04T04:56:52;4.56;4.11;3.19;1.97;15.87;15.81;15.56;14.37;10.61;0.81
78736;SPS30;68349;52.124;5.404;2023-03-04T04:59:18;4.27;3.84;2.97;1.82;14.64;14.58;14.35;13.22;9.71;0.81
78736;SPS30;68349;52.124;5.404;2023-03-04T05:01:45;3.83;3.47;2.73;1.73;13.90;13.86;13.66;12.68;9.50;0.76
78736;SPS30;68349;52.124;5.404;2023-03-04T05:04:12;3.35;3.04;2.42;1.57;12.62;12.58;12.41;11.59;8.80;0.75
78736;SPS30;68349;52.124;5.404;2023-03-04T05:06:39;4.04;3.66;2.89;1.85;14.90;14.86;14.65;13.64;10.28;0.78
78736;SPS30;68349;52.124;5.404;2023-03-04T05:09:06;4.35;3.94;3.11;1.99;15.96;15.91;15.69;14.59;10.98;0.78
78736;SPS30;68349;52.124;5.404;2023-03-04T05:11:33;3.70;3.36;2.66;1.71;13.77;13.73;13.54;12.62;9.54;0.76
78736;SPS30;68349;52.124;5.404;2023-03-04T05:13:59;3.67;3.33;2.64;1.70;13.64;13.60;13.42;12.50;9.45;0.75
78736;SPS30;68349;52.124;5.404;2023-03-04T05:16:26;3.68;3.34;2.65;1.73;13.88;13.83;13.65;12.75;9.68;0.75
78736;SPS30;68349;52.124;5.404;2023-03-04T05:18:53;3.97;3.60;2.84;1.82;14.62;14.58;14.37;13.38;10.08;0.77
78736;SPS30;68349;52.124;5.404;2023-03-04T05:21:19;3.95;3.56;2.78;1.74;13.97;13.92;13.72;12.69;9.43;0.79
78736;SPS30;68349;52.124;5.404;2023-03-04T05:23:46;4.41;3.97;3.08;1.90;15.28;15.22;14.98;13.82;10.19;0.78
78736;SPS30;68349;52.124;5.404;2023-03-04T05:26:14;3.72;3.37;2.65;1.68;13.52;13.48;13.28;12.34;9.25;0.76
78736;SPS30;68349;52.124;5.404;2023-03-04T05:28:43;3.88;3.50;2.74;1.72;13.84;13.79;13.59;12.59;9.38;0.79
78736;SPS30;68349;52.124;5.404;2023-03-04T05:31:10;4.13;3.73;2.93;1.85;14.89;14.84;14.62;13.57;10.15;0.78
78736;SPS30;68349;52.124;5.404;2023-03-04T05:33:37;3.90;3.54;2.79;1.78;14.34;14.30;14.10;13.12;9.87;0.78
78736;SPS30;68349;52.124;5.404;2023-03-04T05:36:05;3.49;3.18;2.56;1.70;13.66;13.63;13.46;12.63;9.70;0.75
78736;SPS30;68349;52.124;5.404;2023-03-04T05:38:32;3.70;3.37;2.71;1.80;14.50;14.46;14.28;13.40;10.30;0.76
78736;SPS30;68349;52.124;5.404;2023-03-04T05:41:01;3.49;3.18;2.55;1.70;13.64;13.60;13.44;12.61;9.68;0.77
78736;SPS30;68349;52.124;5.404;2023-03-04T05:43:30;3.46;3.17;2.57;1.75;14.05;14.02;13.86;13.06;10.14;0.75
78736;SPS30;68349;52.124;5.404;2023-03-04T05:45:57;3.09;2.81;2.24;1.47;11.79;11.75;11.60;10.85;8.27;0.76
78736;SPS30;68349;52.124;5.404;2023-03-04T05:48:23;3.44;3.13;2.51;1.66;13.32;13.28;13.11;12.28;9.40;0.74
78736;SPS30;68349;52.124;5.404;2023-03-04T05:50:54;3.37;3.07;2.47;1.64;13.21;13.17;13.01;12.21;9.39;0.75
78736;SPS30;68349;52.124;5.404;2023-03-04T05:53:24;3.10;2.84;2.31;1.58;12.66;12.63;12.49;11.78;9.16;0.73
78736;SPS30;68349;52.124;5.404;2023-03-04T05:55:52;3.39;3.09;2.47;1.64;13.16;13.12;12.96;12.15;9.31;0.76
78736;SPS30;68349;52.124;5.404;2023-03-04T05:58:19;3.71;3.36;2.66;1.71;13.79;13.74;13.56;12.63;9.55;0.77
78736;SPS30;68349;52.124;5.404;2023-03-04T06:00:47;3.29;3.00;2.42;1.62;13.01;12.97;12.81;12.04;9.28;0.74
78736;SPS30;68349;52.124;5.404;2023-03-04T06:03:15;3.44;3.14;2.51;1.66;13.36;13.32;13.16;12.33;9.45;0.76
78736;SPS30;68349;52.124;5.404;2023-03-04T06:05:43;3.95;3.59;2.84;1.84;14.76;14.72;14.52;13.54;10.24;0.77
78736;SPS30;68349;52.124;5.404;2023-03-04T06:08:11;3.62;3.29;2.61;1.69;13.56;13.52;13.34;12.44;9.42;0.77
78736;SPS30;68349;52.124;5.404;2023-03-04T06:10:39;3.25;2.95;2.34;1.52;12.19;12.15;11.99;11.18;8.47;0.75
78736;SPS30;68349;52.124;5.404;2023-03-04T06:13:06;3.51;3.19;2.54;1.66;13.36;13.32;13.14;12.29;9.36;0.74
78736;SPS30;68349;52.124;5.404;2023-03-04T06:15:34;3.32;3.01;2.40;1.56;12.56;12.53;12.36;11.55;8.78;0.75
78736;SPS30;68349;52.124;5.404;2023-03-04T06:18:01;3.92;3.55;2.79;1.77;14.20;14.16;13.95;12.96;9.71;0.75
78736;SPS30;68349;52.124;5.404;2023-03-04T06:20:28;3.64;3.29;2.57;1.61;12.95;12.91;12.72;11.78;8.77;0.77
78736;SPS30;68349;52.124;5.404;2023-03-04T06:22:55;3.53;3.19;2.49;1.57;12.61;12.56;12.38;11.47;8.56;0.80
78736;SPS30;68349;52.124;5.404;2023-03-04T06:25:22;4.01;3.62;2.81;1.75;14.05;14.00;13.78;12.74;9.43;0.82
78736;SPS30;68349;52.124;5.404;2023-03-04T06:27:49;3.85;3.49;2.74;1.74;13.99;13.94;13.74;12.76;9.57;0.80
78736;SPS30;68349;52.124;5.404;2023-03-04T06:30:16;3.89;3.53;2.77;1.76;14.14;14.09;13.89;12.90;9.67;0.80
78736;SPS30;68349;52.124;5.404;2023-03-04T06:32:43;3.56;3.23;2.56;1.65;13.25;13.21;13.03;12.14;9.18;0.78
78736;SPS30;68349;52.124;5.404;2023-03-04T06:35:11;3.28;3.00;2.42;1.62;13.01;12.97;12.81;12.04;9.28;0.74
78736;SPS30;68349;52.124;5.404;2023-03-04T06:37:40;3.11;2.85;2.33;1.60;12.88;12.85;12.71;12.01;9.38;0.71
78736;SPS30;68349;52.124;5.404;2023-03-04T06:40:07;3.53;3.24;2.64;1.82;14.62;14.59;14.43;13.64;10.64;0.73
78736;SPS30;68349;52.124;5.404;2023-03-04T06:42:34;3.23;2.96;2.42;1.67;13.38;13.34;13.20;12.47;9.74;0.74
78736;SPS30;68349;52.124;5.404;2023-03-04T06:45:02;3.71;3.39;2.74;1.84;14.76;14.71;14.54;13.67;10.55;0.75
78736;SPS30;68349;52.124;5.404;2023-03-04T06:47:29;4.35;3.94;3.09;1.96;15.77;15.72;15.49;14.39;10.78;0.80
78736;SPS30;68349;52.124;5.404;2023-03-04T06:49:56;3.70;3.35;2.61;1.64;13.17;13.13;12.93;11.98;8.92;0.80
78736;SPS30;68349;52.124;5.404;2023-03-04T06:52:23;3.92;3.54;2.77;1.74;13.98;13.93;13.72;12.71;9.47;0.79
78736;SPS30;68349;52.124;5.404;2023-03-04T06:54:50;4.01;3.63;2.86;1.82;14.65;14.61;14.40;13.39;10.06;0.77
78736;SPS30;68349;52.124;5.404;2023-03-04T06:57:16;3.57;3.24;2.56;1.65;13.30;13.26;13.08;12.19;9.22;0.77
78736;SPS30;68349;52.124;5.404;2023-03-04T06:59:43;3.79;3.44;2.71;1.74;14.02;13.98;13.78;12.84;9.69;0.77
78736;SPS30;68349;52.124;5.404;2023-03-04T07:02:10;3.83;3.47;2.75;1.78;14.29;14.25;14.06;13.11;9.92;0.77
78736;SPS30;68349;52.124;5.404;2023-03-04T07:04:38;3.75;3.41;2.69;1.73;13.95;13.90;13.71;12.78;9.65;0.77
78736;SPS30;68349;52.124;5.404;2023-03-04T07:07:05;3.60;3.27;2.59;1.67;13.45;13.41;13.22;12.33;9.33;0.76
78736;SPS30;68349;52.124;5.404;2023-03-04T07:09:32;3.69;3.36;2.68;1.76;14.12;14.08;13.90;13.00;9.92;0.76
78736;SPS30;68349;52.124;5.404;2023-03-04T07:11:58;3.96;3.61;2.88;1.90;15.26;15.21;15.02;14.06;10.74;0.74
78736;SPS30;68349;52.124;5.404;2023-03-04T07:14:25;3.57;3.25;2.61;1.72;13.86;13.82;13.64;12.79;9.80;0.74
78736;SPS30;68349;52.124;5.404;2023-03-04T07:16:53;3.24;2.96;2.38;1.59;12.80;12.76;12.61;11.84;9.12;0.74
78736;SPS30;68349;52.124;5.404;2023-03-04T07:19:19;3.16;2.89;2.35;1.59;12.80;12.77;12.62;11.89;9.23;0.73
78736;SPS30;68349;52.124;5.404;2023-03-04T07:21:46;3.26;2.99;2.43;1.66;13.33;13.29;13.14;12.40;9.64;0.72
78736;SPS30;68349;52.124;5.404;2023-03-04T07:24:13;3.43;3.16;2.63;1.87;15.03;15.00;14.86;14.14;11.20;0.70
78736;SPS30;68349;52.124;5.404;2023-03-04T07:26:40;2.91;2.70;2.28;1.67;13.41;13.38;13.27;12.69;10.18;0.68
78736;SPS30;68349;52.124;5.404;2023-03-04T07:29:07;3.10;2.86;2.37;1.68;13.45;13.42;13.29;12.63;9.98;0.70
78736;SPS30;68349;52.124;5.404;2023-03-04T07:31:34;3.05;2.82;2.34;1.68;13.45;13.42;13.29;12.66;10.05;0.70
78736;SPS30;68349;52.124;5.404;2023-03-04T07:34:03;2.83;2.62;2.19;1.58;12.69;12.66;12.55;11.97;9.53;0.68
78736;SPS30;68349;52.124;5.404;2023-03-04T07:36:32;3.31;3.06;2.54;1.82;14.60;14.57;14.43;13.74;10.90;0.70
78736;SPS30;68349;52.124;5.404;2023-03-04T07:39:00;2.89;2.69;2.26;1.65;13.24;13.22;13.10;12.53;10.03;0.71
78736;SPS30;68349;52.124;5.404;2023-03-04T07:41:28;2.41;2.25;1.92;1.43;11.50;11.48;11.39;10.94;8.85;0.68
78736;SPS30;68349;52.124;5.404;2023-03-04T07:43:55;2.79;2.60;2.22;1.66;13.29;13.26;13.16;12.64;10.21;0.70
78736;SPS30;68349;52.124;5.404;2023-03-04T07:46:23;2.66;2.48;2.09;1.54;12.38;12.36;12.25;11.73;9.43;0.70
78736;SPS30;68349;52.124;5.404;2023-03-04T07:48:50;2.65;2.45;2.05;1.48;11.88;11.86;11.75;11.21;8.93;0.70
78736;SPS30;68349;52.124;5.404;2023-03-04T07:51:18;2.51;2.33;1.97;1.45;11.62;11.60;11.50;11.01;8.84;0.69
78736;SPS30;68349;52.124;5.404;2023-03-04T07:53:48;2.67;2.48;2.10;1.55;12.43;12.41;12.30;11.79;9.48;0.69
78736;SPS30;68349;52.124;5.404;2023-03-04T07:56:18;2.61;2.44;2.09;1.58;12.67;12.65;12.55;12.07;9.80;0.67
78736;SPS30;68349;52.124;5.404;2023-03-04T07:58:47;2.49;2.35;2.09;1.67;13.36;13.34;13.27;12.89;10.68;0.64
78736;SPS30;68349;52.124;5.404;2023-03-04T08:01:16;2.70;2.54;2.23;1.76;14.09;14.07;13.98;13.55;11.16;0.65
78736;SPS30;68349;52.124;5.404;2023-03-04T08:03:45;2.58;2.43;2.13;1.66;13.31;13.29;13.21;12.78;10.50;0.65
78736;SPS30;68349;52.124;5.404;2023-03-04T08:06:13;2.61;2.46;2.15;1.68;13.45;13.43;13.34;12.91;10.60;0.65
78736;SPS30;68349;52.124;5.404;2023-03-04T08:08:41;2.46;2.33;2.05;1.63;13.05;13.03;12.96;12.57;10.38;0.63
78736;SPS30;68349;52.124;5.404;2023-03-04T08:11:10;2.44;2.31;2.04;1.61;12.91;12.89;12.82;12.43;10.26;0.63
78736;SPS30;68349;52.124;5.404;2023-03-04T08:13:39;2.44;2.30;2.03;1.61;12.86;12.84;12.77;12.38;10.21;0.63
78736;SPS30;68349;52.124;5.404;2023-03-04T08:16:06;2.31;2.18;1.92;1.51;12.11;12.10;12.02;11.65;9.60;0.63
78736;SPS30;68349;52.124;5.404;2023-03-04T08:18:33;2.40;2.27;1.99;1.57;12.56;12.54;12.46;12.07;9.95;0.65
78736;SPS30;68349;52.124;5.404;2023-03-04T08:21:00;2.65;2.49;2.16;1.68;13.42;13.40;13.31;12.86;10.53;0.68
78736;SPS30;68349;52.124;5.404;2023-03-04T08:23:27;2.39;2.24;1.94;1.49;11.91;11.89;11.81;11.39;9.30;0.67
78736;SPS30;68349;52.124;5.404;2023-03-04T08:25:53;2.62;2.46;2.12;1.63;13.04;13.02;12.93;12.47;10.17;0.67
78736;SPS30;68349;52.124;5.404;2023-03-04T08:28:20;2.28;2.14;1.87;1.46;11.69;11.67;11.60;11.22;9.21;0.68
78736;SPS30;68349;52.124;5.404;2023-03-04T08:30:51;2.22;2.11;1.88;1.52;12.20;12.18;12.12;11.80;9.81;0.66
78736;SPS30;68349;52.124;5.404;2023-03-04T08:33:18;2.31;2.21;2.00;1.66;13.28;13.27;13.21;12.91;10.82;0.63
78736;SPS30;68349;52.124;5.404;2023-03-04T08:35:45;1.85;1.78;1.64;1.38;11.07;11.06;11.02;10.81;9.12;0.62
78736;SPS30;68349;52.124;5.404;2023-03-04T08:38:12;1.98;1.90;1.75;1.48;11.87;11.86;11.82;11.59;9.78;0.62
78736;SPS30;68349;52.124;5.404;2023-03-04T08:40:38;2.13;2.04;1.86;1.55;12.37;12.36;12.31;12.04;10.11;0.63
78736;SPS30;68349;52.124;5.404;2023-03-04T08:43:05;1.96;1.88;1.74;1.47;11.79;11.77;11.73;11.51;9.72;0.60
78736;SPS30;68349;52.124;5.404;2023-03-04T08:45:32;1.93;1.86;1.73;1.48;11.87;11.86;11.83;11.62;9.85;0.60
78736;SPS30;68349;52.124;5.404;2023-03-04T08:47:58;1.97;1.90;1.77;1.53;12.20;12.19;12.15;11.94;10.13;0.60
78736;SPS30;68349;52.124;5.404;2023-03-04T08:50:25;1.72;1.65;1.53;1.30;10.38;10.38;10.34;10.14;8.57;0.61
78736;SPS30;68349;52.124;5.404;2023-03-04T08:52:52;1.81;1.75;1.63;1.39;11.15;11.14;11.10;10.90;9.24;0.61
78736;SPS30;68349;52.124;5.404;2023-03-04T08:55:19;1.81;1.76;1.65;1.44;11.50;11.49;11.46;11.29;9.61;0.59
78736;SPS30;68349;52.124;5.404;2023-03-04T08:57:46;1.71;1.66;1.56;1.36;10.88;10.87;10.84;10.68;9.09;0.59
78736;SPS30;68349;52.124;5.404;2023-03-04T09:00:12;1.69;1.63;1.53;1.32;10.56;10.55;10.52;10.35;8.79;0.60
78736;SPS30;68349;52.124;5.404;2023-03-04T09:02:39;1.64;1.58;1.46;1.25;9.97;9.96;9.93;9.74;8.24;0.61
78736;SPS30;68349;52.124;5.404;2023-03-04T09:05:06;1.66;1.60;1.48;1.26;10.04;10.03;10.00;9.81;8.29;0.62
78736;SPS30;68349;52.124;5.404;2023-03-04T09:07:33;1.55;1.50;1.40;1.20;9.58;9.57;9.54;9.37;7.94;0.63
78736;SPS30;68349;52.124;5.404;2023-03-04T09:10:00;1.60;1.54;1.43;1.23;9.85;9.84;9.81;9.64;8.17;0.63
78736;SPS30;68349;52.124;5.404;2023-03-04T09:12:26;1.65;1.59;1.48;1.28;10.20;10.19;10.16;9.98;8.47;0.63
78736;SPS30;68349;52.124;5.404;2023-03-04T09:14:53;1.52;1.47;1.38;1.20;9.61;9.61;9.58;9.43;8.03;0.62
78736;SPS30;68349;52.124;5.404;2023-03-04T09:17:35;1.21;1.18;1.11;0.98;7.81;7.81;7.79;7.68;6.55;0.60
78736;SPS30;68349;52.124;5.404;2023-03-04T09:20:02;1.32;1.29;1.21;1.06;8.48;8.47;8.45;8.33;7.10;0.61